LBWN

Varna Airport

Airport
ICAO code
LBWN
IATA Code
VAR
Summary
ICAO Region
EUR
ICAO Territory
Location

Aksakovo, Varna Province

Serving
Varna
Elevation
230 ft
Coordinates
43° 13' 55" N , 27° 49' 30" E
KCC
Metar
Observation
LBWN 081930Z AUTO 12004KT 070V140 4300 BR BKN024/// 09/09 Q1015 TEMPO 3000 BR
Station
Varna
Date/Time
2022-12-08 19:30:00
Wind direction
120°
Wind speed
04 kts
Lowest cloud amount
broken clouds
Temperature
9°C
Dew point
9°C
Humidity
100%
QNH
1015 hPa
Weather condition
n/a

Varna Airport is the airport of Varna, the historical maritime capital of Bulgaria

Climatology

Temperate oceanic climate (Köppen climate classification Cfb)

Runways

Designator Length Width Surface Rops
9/27 2500 55 CON Yes/Yes

Airport map

Aerial View

SKYbrary Partners:

Safety knowledge contributed by: